createdAt,value
2023-05-24T00:02:14.295Z,97543.09
2023-05-24T00:04:42.362Z,97538.50
2023-05-24T00:07:09.583Z,97536.81
2023-05-24T00:09:36.642Z,97529.06
2023-05-24T00:12:03.756Z,97535.13
2023-05-24T00:14:30.889Z,97540.09
2023-05-24T00:16:58.200Z,97536.34
2023-05-24T00:19:25.947Z,97530.16
2023-05-24T00:21:53.044Z,97529.97
2023-05-24T00:24:20.035Z,97525.53
2023-05-24T00:26:47.253Z,97534.06
2023-05-24T00:29:14.497Z,97534.25
2023-05-24T00:31:41.998Z,97532.22
2023-05-24T00:34:10.253Z,97533.69
2023-05-24T00:36:38.454Z,97531.72
2023-05-24T00:39:06.073Z,97537.81
2023-05-24T00:41:33.590Z,97537.16
2023-05-24T00:44:00.699Z,97539.63
2023-05-24T00:46:32.188Z,97538.81
2023-05-24T00:49:00.587Z,97540.63
2023-05-24T00:51:28.544Z,97548.34
2023-05-24T00:53:56.430Z,97540.44
2023-05-24T00:56:23.808Z,97544.47
2023-05-24T00:58:54.889Z,97544.47
2023-05-24T01:01:26.428Z,97538.56
2023-05-24T01:03:54.497Z,97540.84
2023-05-24T01:06:22.269Z,97543.78
2023-05-24T01:09:01.655Z,97537.56
2023-05-24T01:12:06.381Z,97543.97
2023-05-24T01:14:39.463Z,97532.44
2023-05-24T01:17:10.045Z,97531.28
2023-05-24T01:19:49.205Z,97533.25
2023-05-24T01:22:45.220Z,97529.16
2023-05-24T01:25:37.408Z,97536.66
2023-05-24T01:28:06.461Z,97540.25
2023-05-24T01:30:34.516Z,97535.81
2023-05-24T01:33:01.802Z,97532.50
2023-05-24T01:35:28.869Z,97530.63
2023-05-24T01:37:55.933Z,97534.72
2023-05-24T01:40:23.143Z,97533.63
2023-05-24T01:43:08.350Z,97536.59
2023-05-24T01:45:38.352Z,97541.88
2023-05-24T01:48:18.967Z,97532.84
2023-05-24T01:50:52.637Z,97540.56
2023-05-24T01:53:26.375Z,97532.00
2023-05-24T01:55:57.425Z,97530.84
2023-05-24T01:58:26.497Z,97540.25
2023-05-24T02:00:53.967Z,97532.31
2023-05-24T02:03:21.938Z,97543.69
2023-05-24T02:05:49.068Z,97541.03
2023-05-24T02:08:16.164Z,97541.03
2023-05-24T02:10:43.492Z,97541.84
2023-05-24T02:13:11.616Z,97549.31
2023-05-24T02:15:38.717Z,97542.88
2023-05-24T02:18:08.273Z,97544.50
2023-05-24T02:20:39.062Z,97540.38
2023-05-24T02:23:06.940Z,97544.16
2023-05-24T02:25:34.154Z,97545.94
2023-05-24T02:28:01.433Z,97550.06
2023-05-24T02:30:28.571Z,97555.03
2023-05-24T02:32:56.309Z,97559.47
2023-05-24T02:35:23.457Z,97566.06
2023-05-24T02:37:50.490Z,97568.16
2023-05-24T02:40:17.718Z,97555.97
2023-05-24T02:42:44.827Z,97570.13
2023-05-24T02:45:11.865Z,97565.03
2023-05-24T02:47:38.971Z,97575.41
2023-05-24T02:50:07.142Z,97575.03
2023-05-24T02:52:34.181Z,97572.06
2023-05-24T02:55:01.347Z,97567.97
2023-05-24T02:57:28.988Z,97575.41
2023-05-24T02:59:56.317Z,97568.44
2023-05-24T03:02:23.559Z,97570.56
2023-05-24T03:04:50.619Z,97572.03
2023-05-24T03:07:17.717Z,97577.31
2023-05-24T03:09:44.887Z,97569.91
2023-05-24T03:12:12.954Z,97577.31
2023-05-24T03:14:40.181Z,97574.31
2023-05-24T03:17:07.290Z,97579.28
2023-05-24T03:19:35.277Z,97576.81
2023-05-24T03:22:02.369Z,97576.13
2023-05-24T03:24:29.410Z,97574.94
2023-05-24T03:26:57.550Z,97576.25
2023-05-24T03:29:24.714Z,97573.94
2023-05-24T03:31:53.232Z,97572.97
2023-05-24T03:34:20.577Z,97575.03
2023-05-24T03:36:47.630Z,97582.91
2023-05-24T03:39:14.642Z,97580.63
2023-05-24T03:42:00.202Z,97588.38
2023-05-24T03:44:27.338Z,97584.41
2023-05-24T03:46:54.370Z,97597.22
2023-05-24T03:49:21.400Z,97592.25
2023-05-24T03:51:49.324Z,97604.31
2023-05-24T03:54:18.063Z,97601.13
2023-05-24T03:56:45.201Z,97599.59
2023-05-24T03:59:12.204Z,97596.81
2023-05-24T04:01:39.646Z,97602.25
2023-05-24T04:04:06.760Z,97599.91
2023-05-24T04:06:33.824Z,97596.69
2023-05-24T04:09:02.111Z,97596.97
2023-05-24T04:11:29.937Z,97588.16
2023-05-24T04:14:00.692Z,97593.84
2023-05-24T04:16:29.390Z,97595.44
2023-05-24T04:18:58.244Z,97609.69
2023-05-24T04:21:25.418Z,97600.78
2023-05-24T04:23:54.333Z,97602.81
2023-05-24T04:26:21.468Z,97609.59
2023-05-24T04:28:48.873Z,97610.78
2023-05-24T04:31:16.571Z,97614.00
2023-05-24T04:33:43.954Z,97620.94
2023-05-24T04:36:12.145Z,97621.97
2023-05-24T04:38:41.222Z,97619.50
2023-05-24T04:41:08.409Z,97616.13
2023-05-24T04:43:35.493Z,97616.47
2023-05-24T04:46:02.742Z,97609.75
2023-05-24T04:48:30.265Z,97613.69
2023-05-24T04:51:01.207Z,97615.13
2023-05-24T04:53:28.238Z,97615.84
2023-05-24T04:55:55.312Z,97618.16
2023-05-24T04:58:22.424Z,97617.13
2023-05-24T05:00:49.554Z,97628.00
2023-05-24T05:03:16.794Z,97618.03
2023-05-24T05:05:44.646Z,97624.25
2023-05-24T05:08:11.648Z,97622.16
2023-05-24T05:10:38.703Z,97619.59
2023-05-24T05:13:06.073Z,97621.50
2023-05-24T05:15:33.557Z,97613.47
2023-05-24T05:18:00.848Z,97620.41
2023-05-24T05:20:27.934Z,97618.03
2023-05-24T05:22:54.989Z,97619.88
2023-05-24T05:25:22.234Z,97622.53
2023-05-24T05:27:49.335Z,97623.69
2023-05-24T05:30:16.564Z,97636.56
2023-05-24T05:32:43.935Z,97624.78
2023-05-24T05:35:11.211Z,97638.22
2023-05-24T05:37:38.262Z,97633.88
2023-05-24T05:40:05.662Z,97639.19
2023-05-24T05:42:32.761Z,97643.56
2023-05-24T05:44:59.838Z,97636.25
2023-05-24T05:47:26.970Z,97639.25
2023-05-24T05:49:54.066Z,97652.69
2023-05-24T05:52:21.209Z,97648.03
2023-05-24T05:54:48.240Z,97654.78
2023-05-24T05:57:16.474Z,97654.66
2023-05-24T05:59:43.561Z,97650.56
2023-05-24T06:02:12.936Z,97658.06
2023-05-24T06:04:40.002Z,97650.34
2023-05-24T06:07:07.137Z,97659.75
2023-05-24T06:09:34.261Z,97647.72
2023-05-24T06:12:01.417Z,97652.81
2023-05-24T06:14:28.469Z,97653.44
2023-05-24T06:16:56.836Z,97653.06
2023-05-24T06:19:25.264Z,97652.94
2023-05-24T06:21:52.306Z,97652.75
2023-05-24T06:24:22.961Z,97655.72
2023-05-24T06:26:53.179Z,97654.50
2023-05-24T06:29:22.117Z,97657.75
2023-05-24T06:31:50.388Z,97651.03
2023-05-24T06:34:21.537Z,97649.16
2023-05-24T06:36:51.613Z,97646.56
2023-05-24T06:39:19.156Z,97652.88
2023-05-24T06:41:47.408Z,97654.72
2023-05-24T06:44:14.793Z,97655.78
2023-05-24T06:46:42.113Z,97653.16
2023-05-24T06:49:09.268Z,97655.53
2023-05-24T06:51:38.121Z,97653.09
2023-05-24T06:54:05.220Z,97659.84
2023-05-24T06:56:32.239Z,97663.31
2023-05-24T06:59:00.266Z,97660.75
2023-05-24T07:01:27.784Z,97664.78
2023-05-24T07:03:55.253Z,97669.88
2023-05-24T07:06:22.517Z,97665.50
2023-05-24T07:08:49.520Z,97670.59
2023-05-24T07:11:16.792Z,97666.72
2023-05-24T07:13:43.877Z,97656.28
2023-05-24T07:16:11.950Z,97657.34
2023-05-24T07:18:41.892Z,97661.81
2023-05-24T07:21:09.177Z,97659.75
2023-05-24T07:23:37.157Z,97663.25
2023-05-24T07:26:04.939Z,97664.69
2023-05-24T07:28:32.877Z,97673.06
2023-05-24T07:31:00.255Z,97672.25
2023-05-24T07:33:27.366Z,97671.59
2023-05-24T07:35:54.862Z,97672.28
2023-05-24T07:38:22.087Z,97666.31
2023-05-24T07:40:49.279Z,97676.31
2023-05-24T07:43:16.370Z,97671.81
2023-05-24T07:45:43.596Z,97670.75
2023-05-24T07:48:11.056Z,97669.94
2023-05-24T07:50:38.708Z,97662.63
2023-05-24T07:53:06.452Z,97664.03
2023-05-24T07:55:33.772Z,97666.06
2023-05-24T07:58:00.885Z,97668.75
2023-05-24T08:00:27.924Z,97669.78
2023-05-24T08:02:55.025Z,97674.56
2023-05-24T08:05:22.327Z,97672.31
2023-05-24T08:07:49.386Z,97679.66
2023-05-24T08:10:16.910Z,97671.13
2023-05-24T08:12:43.976Z,97673.69
2023-05-24T08:15:11.230Z,97672.47
2023-05-24T08:17:39.368Z,97677.03
2023-05-24T08:20:09.116Z,97685.56
2023-05-24T08:22:37.586Z,97679.25
2023-05-24T08:25:06.368Z,97682.50
2023-05-24T08:27:33.802Z,97680.81
2023-05-24T08:30:02.090Z,97676.50
2023-05-24T08:32:29.129Z,97668.97
2023-05-24T08:35:03.744Z,97675.28
2023-05-24T08:37:43.969Z,97677.38
2023-05-24T08:40:11.173Z,97672.31
2023-05-24T08:42:39.885Z,97672.09
2023-05-24T08:45:12.506Z,97674.53
2023-05-24T08:47:40.847Z,97681.78
2023-05-24T08:50:08.930Z,97678.06
2023-05-24T08:52:36.598Z,97670.72
2023-05-24T08:55:07.045Z,97671.97
2023-05-24T08:57:35.097Z,97677.84
2023-05-24T09:00:02.236Z,97677.31
2023-05-24T09:02:30.504Z,97685.94
2023-05-24T09:04:58.729Z,97668.88
2023-05-24T09:07:26.474Z,97677.75
2023-05-24T09:10:05.414Z,97671.88
2023-05-24T09:12:38.108Z,97675.97
2023-05-24T09:15:07.793Z,97675.31
2023-05-24T09:17:37.053Z,97674.19
2023-05-24T09:20:07.342Z,97677.00
2023-05-24T09:22:40.799Z,97688.53
2023-05-24T09:25:10.041Z,97688.72
2023-05-24T09:27:37.859Z,97687.53
2023-05-24T09:30:10.613Z,97691.72
2023-05-24T09:32:38.221Z,97685.16
2023-05-24T09:35:09.711Z,97696.97
2023-05-24T09:37:39.003Z,97702.56
2023-05-24T09:40:11.081Z,97706.34
2023-05-24T09:42:38.564Z,97694.75
2023-05-24T10:18:10.609Z,97692.13
2023-05-24T10:20:41.709Z,97691.31
2023-05-24T10:23:11.132Z,97696.59
2023-05-24T10:25:44.986Z,97692.13
2023-05-24T10:28:15.343Z,97698.06
2023-05-24T10:31:00.733Z,97695.19
2023-05-24T10:33:28.803Z,97695.13
2023-05-24T10:35:57.268Z,97704.28
2023-05-24T10:38:25.121Z,97694.91
2023-05-24T10:40:52.586Z,97687.00
2023-05-24T10:43:21.587Z,97682.38
2023-05-24T10:45:50.130Z,97680.06
2023-05-24T10:48:17.868Z,97681.25
2023-05-24T10:50:45.294Z,97664.03
2023-05-24T10:53:17.706Z,97676.22
2023-05-24T10:56:01.230Z,97683.22
2023-05-24T10:58:46.433Z,97685.00
2023-05-24T11:01:29.754Z,97686.88
2023-05-24T11:04:18.434Z,97696.19
2023-05-24T11:06:57.136Z,97690.69
2023-05-24T11:09:25.569Z,97692.63
2023-05-24T11:12:00.328Z,97695.78
2023-05-24T11:14:29.398Z,97696.75
2023-05-24T11:16:56.953Z,97696.22
2023-05-24T11:19:29.828Z,97687.75
2023-05-24T11:22:00.724Z,97691.56
2023-05-24T11:24:29.238Z,97683.31
2023-05-24T11:26:57.277Z,97690.03
2023-05-24T11:29:24.482Z,97679.75
2023-05-24T11:31:54.455Z,97687.34
2023-05-24T11:34:22.279Z,97683.09
2023-05-24T11:36:50.184Z,97682.66
2023-05-24T11:39:18.132Z,97686.63
2023-05-24T11:41:45.322Z,97684.34
2023-05-24T11:44:12.499Z,97683.38
2023-05-24T11:46:40.716Z,97685.78
2023-05-24T11:49:12.556Z,97688.44
2023-05-24T11:51:39.656Z,97682.50
2023-05-24T11:54:06.683Z,97682.41
2023-05-24T11:56:34.217Z,97684.78
2023-05-24T11:59:15.635Z,97687.63
2023-05-24T12:01:43.049Z,97684.78
2023-05-24T12:04:10.853Z,97685.00
2023-05-24T12:06:44.754Z,97690.25
2023-05-24T12:09:15.729Z,97679.78
2023-05-24T12:11:48.314Z,97676.16
2023-05-24T12:14:16.959Z,97673.72
2023-05-24T12:16:45.604Z,97671.34
2023-05-24T12:19:31.389Z,97674.78
2023-05-24T12:22:00.747Z,97673.72
2023-05-24T12:24:28.662Z,97669.81
2023-05-24T12:27:08.094Z,97676.56
2023-05-24T12:29:37.988Z,97667.94
2023-05-24T12:32:05.991Z,97663.25
2023-05-24T12:34:33.142Z,97655.16
2023-05-24T12:37:00.247Z,97650.31
2023-05-24T12:39:35.296Z,97651.28
2023-05-24T12:42:04.478Z,97651.69
2023-05-24T12:44:35.699Z,97645.13
2023-05-24T12:47:05.312Z,97645.56
2023-05-24T12:49:32.687Z,97638.31
2023-05-24T12:52:00.054Z,97634.50
2023-05-24T12:54:28.912Z,97637.63
2023-05-24T12:56:57.812Z,97631.63
2023-05-24T12:59:26.483Z,97634.28
2023-05-24T13:01:53.965Z,97628.63
2023-05-24T13:04:24.561Z,97628.38
2023-05-24T13:06:51.679Z,97626.06
2023-05-24T13:09:21.718Z,97629.63
2023-05-24T13:11:49.315Z,97620.13
2023-05-24T13:14:17.041Z,97617.47
2023-05-24T13:16:44.587Z,97626.72
2023-05-24T13:19:12.625Z,97621.34
2023-05-24T13:21:40.491Z,97620.59
2023-05-24T13:24:07.933Z,97619.78
2023-05-24T13:26:37.906Z,97624.34
2023-05-24T13:31:41.251Z,97618.44
2023-05-24T13:34:09.357Z,97611.59
2023-05-24T13:36:38.120Z,97616.97
2023-05-24T13:39:15.625Z,97616.31
2023-05-24T13:41:44.477Z,97614.69
2023-05-24T13:44:13.296Z,97624.00
2023-05-24T13:46:41.039Z,97621.28
2023-05-24T13:49:09.483Z,97617.34
2023-05-24T13:51:37.421Z,97621.66
2023-05-24T13:54:07.430Z,97617.09
2023-05-24T13:56:35.711Z,97614.72
2023-05-24T13:59:04.626Z,97614.69
2023-05-24T14:01:32.646Z,97597.50
2023-05-24T14:04:02.869Z,97604.88
2023-05-24T14:06:30.164Z,97596.00
2023-05-24T14:08:57.288Z,97603.09
2023-05-24T14:11:25.657Z,97600.84
2023-05-24T14:16:24.198Z,97589.03
2023-05-24T14:18:51.892Z,97586.63
2023-05-24T14:21:21.868Z,97584.34
2023-05-24T14:23:50.239Z,97586.38
2023-05-24T14:26:18.942Z,97584.69
2023-05-24T14:28:46.319Z,97583.00
2023-05-24T14:31:13.450Z,97578.22
2023-05-24T14:33:40.507Z,97578.97
2023-05-24T14:36:08.178Z,97577.97
2023-05-24T14:38:35.321Z,97581.59
2023-05-24T14:41:03.026Z,97577.28
2023-05-24T14:43:30.087Z,97579.41
2023-05-24T14:45:57.178Z,97579.97
2023-05-24T14:48:24.263Z,97579.53
2023-05-24T14:50:51.483Z,97576.56
2023-05-24T14:53:18.593Z,97574.88
2023-05-24T14:55:45.881Z,97580.22
2023-05-24T14:58:13.335Z,97576.75
2023-05-24T15:00:41.807Z,97586.94
2023-05-24T15:03:09.454Z,97584.44
2023-05-24T15:05:37.226Z,97586.59
2023-05-24T15:08:05.772Z,97583.97
2023-05-24T15:10:33.598Z,97591.16
2023-05-24T15:13:01.669Z,97579.19
2023-05-24T15:15:28.900Z,97593.53
2023-05-24T15:17:57.382Z,97584.66
2023-05-24T15:22:52.585Z,97588.84
2023-05-24T15:25:19.742Z,97587.06
2023-05-24T15:27:47.768Z,97587.69
2023-05-24T15:30:15.137Z,97586.28
2023-05-24T15:32:42.194Z,97593.69
2023-05-24T15:35:09.669Z,97589.31
2023-05-24T15:37:36.716Z,97591.97
2023-05-24T15:40:04.109Z,97589.31
2023-05-24T15:42:32.339Z,97595.31
2023-05-24T15:44:59.411Z,97592.44
2023-05-24T15:47:29.306Z,97595.13
2023-05-24T15:49:57.193Z,97598.59
2023-05-24T15:52:24.408Z,97592.56
2023-05-24T15:54:51.524Z,97587.69
2023-05-24T15:57:18.727Z,97589.72
2023-05-24T15:59:45.757Z,97587.97
2023-05-24T16:02:12.865Z,97595.47
2023-05-24T16:04:40.005Z,97593.13
2023-05-24T16:07:07.417Z,97592.16
2023-05-24T16:09:34.657Z,97591.94
2023-05-24T16:12:01.801Z,97595.44
2023-05-24T16:14:29.987Z,97592.16
2023-05-24T16:16:59.002Z,97593.03
2023-05-24T16:19:26.931Z,97590.59
2023-05-24T16:21:54.052Z,97598.13
2023-05-24T16:24:21.135Z,97600.84
2023-05-24T16:26:48.174Z,97594.63
2023-05-24T16:29:17.014Z,97604.41
2023-05-24T16:31:44.115Z,97598.00
2023-05-24T16:34:11.277Z,97601.94
2023-05-24T16:36:38.416Z,97599.53
2023-05-24T16:39:05.763Z,97600.03
2023-05-24T16:41:37.806Z,97600.84
2023-05-24T16:44:04.990Z,97607.78
2023-05-24T16:46:32.772Z,97602.88
2023-05-24T16:49:00.669Z,97605.91
2023-05-24T16:51:27.692Z,97599.81
2023-05-24T16:53:54.781Z,97606.81
2023-05-24T16:56:23.284Z,97602.53
2023-05-24T16:58:50.385Z,97606.63
2023-05-24T17:01:17.608Z,97609.28
2023-05-24T17:03:44.767Z,97600.91
2023-05-24T17:06:11.969Z,97598.59
2023-05-24T17:08:39.265Z,97610.94
2023-05-24T17:11:06.766Z,97615.00
2023-05-24T17:13:34.299Z,97616.63
2023-05-24T17:16:03.808Z,97614.09
2023-05-24T17:18:31.246Z,97609.78
2023-05-24T17:21:00.207Z,97612.81
2023-05-24T17:23:28.804Z,97623.91
2023-05-24T17:25:55.899Z,97624.47
2023-05-24T17:28:27.628Z,97625.63
2023-05-24T17:30:59.349Z,97618.28
2023-05-24T17:33:28.682Z,97629.09
2023-05-24T17:35:56.816Z,97621.69
2023-05-24T17:38:25.377Z,97626.41
2023-05-24T17:40:59.776Z,97629.91
2023-05-24T17:43:29.357Z,97635.56
2023-05-24T17:46:04.296Z,97627.06
2023-05-24T17:48:38.902Z,97626.88
2023-05-24T17:51:07.908Z,97626.44
2023-05-24T17:53:36.448Z,97624.22
2023-05-24T17:56:05.117Z,97628.44
2023-05-24T17:58:36.309Z,97628.38
2023-05-24T18:01:05.586Z,97631.56
2023-05-24T18:03:37.399Z,97628.97
2023-05-24T18:06:07.099Z,97634.38
2023-05-24T18:08:37.387Z,97635.16
2023-05-24T18:11:08.636Z,97641.00
2023-05-24T18:13:40.584Z,97649.19
2023-05-24T18:16:10.486Z,97660.09
2023-05-24T18:18:41.093Z,97661.53
2023-05-24T18:21:09.696Z,97664.63
2023-05-24T18:23:40.131Z,97658.22
2023-05-24T18:26:09.400Z,97670.63
2023-05-24T18:28:37.903Z,97668.09
2023-05-24T18:31:08.540Z,97668.69
2023-05-24T18:33:36.081Z,97676.34
2023-05-24T18:36:06.905Z,97683.22
2023-05-24T18:38:35.028Z,97688.88
2023-05-24T18:41:05.904Z,97695.69
2023-05-24T18:43:33.349Z,97698.06
2023-05-24T18:46:00.501Z,97694.31
2023-05-24T18:48:27.642Z,97690.50
2023-05-24T18:50:55.087Z,97697.53
2023-05-24T18:53:22.169Z,97696.41
2023-05-24T18:55:49.275Z,97700.91
2023-05-24T18:58:16.264Z,97700.34
2023-05-24T19:00:43.537Z,97698.16
2023-05-24T19:03:13.804Z,97705.38
2023-05-24T19:05:43.510Z,97696.34
2023-05-24T19:08:11.332Z,97708.84
2023-05-24T19:10:38.453Z,97709.56
2023-05-24T19:13:06.765Z,97715.78
2023-05-24T19:15:35.814Z,97717.44
2023-05-24T19:18:03.494Z,97716.63
2023-05-24T19:20:30.660Z,97719.09
2023-05-24T19:22:57.869Z,97722.25
2023-05-24T19:25:24.888Z,97722.25
2023-05-24T19:30:22.320Z,97719.63
2023-05-24T19:32:49.436Z,97716.44
2023-05-24T19:35:16.576Z,97717.31
2023-05-24T19:37:43.886Z,97715.16
2023-05-24T19:40:11.488Z,97709.84
2023-05-24T19:42:38.536Z,97716.47
2023-05-24T19:45:06.290Z,97722.78
2023-05-24T19:47:33.298Z,97715.31
2023-05-24T19:50:00.566Z,97718.53
2023-05-24T19:52:27.609Z,97714.50
2023-05-24T19:54:54.722Z,97716.13
2023-05-24T19:57:21.758Z,97712.00
2023-05-24T19:59:48.896Z,97723.13
2023-05-24T20:02:15.923Z,97714.47
2023-05-24T20:04:44.150Z,97721.09
2023-05-24T20:07:11.611Z,97717.25
2023-05-24T20:09:39.008Z,97720.47
2023-05-24T20:12:06.389Z,97714.19
2023-05-24T20:14:33.433Z,97715.81
2023-05-24T20:17:01.310Z,97716.69
2023-05-24T20:19:29.455Z,97714.41
2023-05-24T20:21:57.228Z,97711.19
2023-05-24T20:24:24.254Z,97717.53
2023-05-24T20:26:51.311Z,97705.47
2023-05-24T20:29:18.409Z,97706.09
2023-05-24T20:31:47.235Z,97702.97
2023-05-24T20:34:14.422Z,97697.94
2023-05-24T20:36:43.549Z,97703.16
2023-05-24T20:39:11.012Z,97703.78
2023-05-24T20:41:38.004Z,97703.69
2023-05-24T20:44:05.063Z,97705.28
2023-05-24T20:46:32.165Z,97701.28
2023-05-24T20:48:59.572Z,97701.47
2023-05-24T20:51:26.574Z,97704.63
2023-05-24T20:53:53.622Z,97695.94
2023-05-24T20:56:23.602Z,97703.19
2023-05-24T20:58:53.191Z,97699.19
2023-05-24T21:01:21.308Z,97712.06
2023-05-24T21:03:48.511Z,97709.97
2023-05-24T21:06:15.629Z,97715.69
2023-05-24T21:08:43.550Z,97702.56
2023-05-24T21:11:10.652Z,97711.69
2023-05-24T21:13:37.891Z,97703.41
2023-05-24T21:16:05.056Z,97704.59
2023-05-24T21:18:33.469Z,97709.41
2023-05-24T21:21:00.634Z,97699.56
2023-05-24T21:23:27.655Z,97694.47
2023-05-24T21:25:54.669Z,97705.56
2023-05-24T21:28:21.755Z,97709.00
2023-05-24T21:30:48.934Z,97719.06
2023-05-24T21:33:16.687Z,97712.81
2023-05-24T21:35:44.081Z,97710.16
2023-05-24T21:38:11.375Z,97725.94
2023-05-24T21:40:38.436Z,97720.31
2023-05-24T21:43:05.596Z,97718.16
2023-05-24T21:45:32.621Z,97711.19
2023-05-24T21:47:59.715Z,97720.44
2023-05-24T21:50:26.771Z,97715.59
2023-05-24T21:52:53.845Z,97717.25
2023-05-24T21:55:21.073Z,97721.56
2023-05-24T21:57:48.135Z,97713.69
2023-05-24T22:00:16.914Z,97714.00
2023-05-24T22:02:44.064Z,97704.72
2023-05-24T22:05:11.323Z,97710.97
2023-05-24T22:07:38.584Z,97704.03
2023-05-24T22:10:07.471Z,97706.41
2023-05-24T22:12:35.234Z,97712.56
2023-05-24T22:15:02.687Z,97707.09
2023-05-24T22:17:32.721Z,97706.47
2023-05-24T22:20:04.351Z,97703.16
2023-05-24T22:22:31.540Z,97704.84
2023-05-24T22:25:00.340Z,97705.03
2023-05-24T22:27:27.580Z,97695.31
2023-05-24T22:29:55.521Z,97698.13
2023-05-24T22:32:22.866Z,97701.53
2023-05-24T22:34:49.902Z,97695.63
2023-05-24T22:37:17.122Z,97691.69
2023-05-24T22:39:45.160Z,97695.97
2023-05-24T22:42:12.220Z,97700.59
2023-05-24T22:44:39.254Z,97696.63
2023-05-24T22:47:06.342Z,97705.19
2023-05-24T22:49:34.388Z,97700.44
2023-05-24T22:52:01.855Z,97701.59
2023-05-24T22:54:28.958Z,97703.22
2023-05-24T22:56:56.886Z,97701.91
2023-05-24T22:59:23.980Z,97700.06
2023-05-24T23:01:51.260Z,97695.44
2023-05-24T23:04:21.097Z,97697.19
2023-05-24T23:06:53.370Z,97704.09
2023-05-24T23:09:35.025Z,97696.34
2023-05-24T23:12:08.477Z,97688.31
2023-05-24T23:14:38.688Z,97682.44
2023-05-24T23:17:06.852Z,97691.03
2023-05-24T23:19:34.351Z,97680.59
2023-05-24T23:22:03.559Z,97688.00
2023-05-24T23:24:31.442Z,97687.31
2023-05-24T23:26:58.491Z,97690.13
2023-05-24T23:29:25.632Z,97687.50
2023-05-24T23:31:52.745Z,97693.72
2023-05-24T23:34:19.737Z,97699.00
2023-05-24T23:36:46.744Z,97697.53
2023-05-24T23:39:13.855Z,97687.34
2023-05-24T23:41:40.907Z,97694.13
2023-05-24T23:44:07.920Z,97694.63
2023-05-24T23:46:36.121Z,97691.16
2023-05-24T23:49:03.253Z,97696.22
2023-05-24T23:51:33.327Z,97695.25
2023-05-24T23:54:01.333Z,97695.63
2023-05-24T23:56:28.423Z,97695.28
2023-05-24T23:58:56.040Z,97694.91
